TFM - Tactical Decision Aid (Experimental) INFO Settings
ID: Runway Winds: CIG/VIS Threshold: METAR Board: Map:

KDFW - Dallas/Fort Worth Intl

Updated at: 0312 UTC 26 Feb 2017
Latest TAF at: 0250 UTC 26 Feb 2017

TAF Board

Time0253Z26/04Z26/05Z26/06Z26/07Z26/08Z26/09Z26/10Z26/11Z26/12Z26/13Z26/14Z26/15Z26/16Z
TypeOBSPRVLPRVLPRVLPRVLPRVLPRVLPRVLPRVLPRVLPRVLPRVLPRVLPRVL
VIS10>6>6>6>6>6>6>6>6>6>6>6>6>6
CIG----------------------------
CoverFEWFEWFEWFEWFEWFEWFEWFEWFEWFEWFEWFEWFEWFEW
FltCatVFRVFRVFRVFRVFRVFRVFRVFRVFRVFRVFRVFRVFRVFR
WX----------------------------
WDir120120120120120120120120120120120120120120
WSpd45555555555555
WGst----------------------------
TAF
KDFW 260250Z 2603/2706 12005KT P6SM FEW250
  FM261700 16013KT P6SM BKN018
  FM262100 17012KT P6SM VCSH OVC012
  FM270200 17012KT 6SM -RA OVC010


METAR
KDFW 260253Z 12004KT 10SM FEW250 08/M06 A3007 RMK AO2 SLP182 T00781061 55002
KDFW 260153Z 13005KT 10SM FEW250 08/M06 A3006 RMK AO2 SLP180 T00831061

TAF/METAR Board Legend

Potential Impact
  None Marginal Slight Moderate High
Visibility (sm) >5 3≤X≤5 1≤X<3 0.5≤X<1 <0.5
Ceiling (100 ft) >30 10≤X≤30 4≤X<10 2≤X<4 <2
Wind Speed (kt) <10 10≤X<20 20≤X<30 ≥30
Wind Gust (kt) <15 15≤X<25 25≤X<35 ≥35
Weather No Wx Reported VCTS -TS,-FZRA TS,FZRA +TS,+FZRA




Page loaded:  03:12 UTC  |   07:12 PM Pacific  |   08:12 PM Mountain  |   09:12 PM Central  |   10:12 PM Eastern